sensor_id;sensor_type;location;lat;lon;timestamp;temperature;humidity
53410;DHT22;66590;50.734;4.246;2023-07-28T00:00:12;17.80;99.90
53410;DHT22;66590;50.734;4.246;2023-07-28T00:02:39;17.80;99.90
53410;DHT22;66590;50.734;4.246;2023-07-28T00:05:07;17.80;99.90
53410;DHT22;66590;50.734;4.246;2023-07-28T00:07:34;17.80;99.90
53410;DHT22;66590;50.734;4.246;2023-07-28T00:10:01;17.80;99.90
53410;DHT22;66590;50.734;4.246;2023-07-28T00:12:28;17.80;99.90
53410;DHT22;66590;50.734;4.246;2023-07-28T00:14:55;17.80;99.90
53410;DHT22;66590;50.734;4.246;2023-07-28T00:17:23;17.80;99.90
53410;DHT22;66590;50.734;4.246;2023-07-28T00:19:50;17.80;99.90
53410;DHT22;66590;50.734;4.246;2023-07-28T00:22:17;17.80;99.90
53410;DHT22;66590;50.734;4.246;2023-07-28T00:24:44;17.80;99.90
53410;DHT22;66590;50.734;4.246;2023-07-28T00:27:11;17.70;99.90
53410;DHT22;66590;50.734;4.246;2023-07-28T00:29:38;17.70;99.90
53410;DHT22;66590;50.734;4.246;2023-07-28T00:32:06;17.70;99.90
53410;DHT22;66590;50.734;4.246;2023-07-28T00:34:35;17.80;99.90
53410;DHT22;66590;50.734;4.246;2023-07-28T00:37:02;17.80;99.90
53410;DHT22;66590;50.734;4.246;2023-07-28T00:39:29;17.70;99.90
53410;DHT22;66590;50.734;4.246;2023-07-28T00:41:58;17.70;99.90
53410;DHT22;66590;50.734;4.246;2023-07-28T00:44:25;17.70;99.90
53410;DHT22;66590;50.734;4.246;2023-07-28T00:46:53;17.70;99.90
53410;DHT22;66590;50.734;4.246;2023-07-28T00:49:20;17.80;99.90
53410;DHT22;66590;50.734;4.246;2023-07-28T00:51:49;17.80;99.90
53410;DHT22;66590;50.734;4.246;2023-07-28T00:54:17;17.80;99.90
53410;DHT22;66590;50.734;4.246;2023-07-28T00:56:44;17.80;99.90
53410;DHT22;66590;50.734;4.246;2023-07-28T00:59:11;17.80;99.90
53410;DHT22;66590;50.734;4.246;2023-07-28T01:01:38;17.80;99.90
53410;DHT22;66590;50.734;4.246;2023-07-28T01:04:05;17.90;99.90
53410;DHT22;66590;50.734;4.246;2023-07-28T01:06:39;17.90;99.90
53410;DHT22;66590;50.734;4.246;2023-07-28T01:09:11;17.90;99.90
53410;DHT22;66590;50.734;4.246;2023-07-28T01:11:39;17.90;99.90
53410;DHT22;66590;50.734;4.246;2023-07-28T01:14:18;17.90;99.90
53410;DHT22;66590;50.734;4.246;2023-07-28T01:16:46;17.90;99.90
53410;DHT22;66590;50.734;4.246;2023-07-28T01:19:15;17.80;99.90
53410;DHT22;66590;50.734;4.246;2023-07-28T01:21:43;17.80;99.90
53410;DHT22;66590;50.734;4.246;2023-07-28T01:24:18;17.80;99.90
53410;DHT22;66590;50.734;4.246;2023-07-28T01:26:48;17.80;99.90
53410;DHT22;66590;50.734;4.246;2023-07-28T01:29:17;17.80;99.90
53410;DHT22;66590;50.734;4.246;2023-07-28T01:31:46;17.90;99.90
53410;DHT22;66590;50.734;4.246;2023-07-28T01:34:13;17.90;99.90
53410;DHT22;66590;50.734;4.246;2023-07-28T01:36:40;17.90;99.90
53410;DHT22;66590;50.734;4.246;2023-07-28T01:39:07;17.90;99.90
53410;DHT22;66590;50.734;4.246;2023-07-28T01:41:34;17.80;99.90
53410;DHT22;66590;50.734;4.246;2023-07-28T01:44:02;17.90;99.90
53410;DHT22;66590;50.734;4.246;2023-07-28T01:46:29;17.90;99.90
53410;DHT22;66590;50.734;4.246;2023-07-28T01:48:56;17.90;99.90
53410;DHT22;66590;50.734;4.246;2023-07-28T01:51:23;17.90;99.90
53410;DHT22;66590;50.734;4.246;2023-07-28T01:53:50;17.90;99.90
53410;DHT22;66590;50.734;4.246;2023-07-28T01:56:17;18.00;99.90
53410;DHT22;66590;50.734;4.246;2023-07-28T01:58:45;17.90;99.90
53410;DHT22;66590;50.734;4.246;2023-07-28T02:01:14;18.00;99.90
53410;DHT22;66590;50.734;4.246;2023-07-28T02:03:41;18.00;99.90
53410;DHT22;66590;50.734;4.246;2023-07-28T02:06:08;18.00;99.90
53410;DHT22;66590;50.734;4.246;2023-07-28T02:08:35;17.90;99.90
53410;DHT22;66590;50.734;4.246;2023-07-28T02:11:02;18.00;99.90
53410;DHT22;66590;50.734;4.246;2023-07-28T02:13:29;18.00;99.90
53410;DHT22;66590;50.734;4.246;2023-07-28T02:15:56;17.90;99.90
53410;DHT22;66590;50.734;4.246;2023-07-28T02:18:24;17.90;99.90
53410;DHT22;66590;50.734;4.246;2023-07-28T02:20:51;17.90;99.90
53410;DHT22;66590;50.734;4.246;2023-07-28T02:23:18;18.00;99.90
53410;DHT22;66590;50.734;4.246;2023-07-28T02:25:45;17.90;99.90
53410;DHT22;66590;50.734;4.246;2023-07-28T02:28:12;17.90;99.90
53410;DHT22;66590;50.734;4.246;2023-07-28T02:30:39;18.00;99.90
53410;DHT22;66590;50.734;4.246;2023-07-28T02:33:06;18.00;99.90
53410;DHT22;66590;50.734;4.246;2023-07-28T02:35:35;18.00;99.90
53410;DHT22;66590;50.734;4.246;2023-07-28T02:38:02;18.00;99.90
53410;DHT22;66590;50.734;4.246;2023-07-28T02:40:29;18.00;99.90
53410;DHT22;66590;50.734;4.246;2023-07-28T02:42:56;18.10;99.90
53410;DHT22;66590;50.734;4.246;2023-07-28T02:45:23;18.00;99.90
53410;DHT22;66590;50.734;4.246;2023-07-28T02:47:50;18.00;99.90
53410;DHT22;66590;50.734;4.246;2023-07-28T02:50:17;18.00;99.90
53410;DHT22;66590;50.734;4.246;2023-07-28T02:52:45;18.00;99.90
53410;DHT22;66590;50.734;4.246;2023-07-28T02:55:12;17.90;99.90
53410;DHT22;66590;50.734;4.246;2023-07-28T02:57:39;17.90;99.90
53410;DHT22;66590;50.734;4.246;2023-07-28T03:00:09;17.90;99.90
53410;DHT22;66590;50.734;4.246;2023-07-28T03:02:37;18.00;99.90
53410;DHT22;66590;50.734;4.246;2023-07-28T03:05:05;18.00;99.90
53410;DHT22;66590;50.734;4.246;2023-07-28T03:07:32;18.00;99.90
53410;DHT22;66590;50.734;4.246;2023-07-28T03:10:00;18.00;99.90
53410;DHT22;66590;50.734;4.246;2023-07-28T03:12:27;17.90;99.90
53410;DHT22;66590;50.734;4.246;2023-07-28T03:14:54;17.90;99.90
53410;DHT22;66590;50.734;4.246;2023-07-28T03:17:21;17.80;99.90
53410;DHT22;66590;50.734;4.246;2023-07-28T03:19:48;17.80;99.90
53410;DHT22;66590;50.734;4.246;2023-07-28T03:22:15;17.80;99.90
53410;DHT22;66590;50.734;4.246;2023-07-28T03:24:42;17.80;99.90
53410;DHT22;66590;50.734;4.246;2023-07-28T03:27:10;17.80;99.90
53410;DHT22;66590;50.734;4.246;2023-07-28T03:29:37;17.80;99.90
53410;DHT22;66590;50.734;4.246;2023-07-28T03:32:05;17.80;99.90
53410;DHT22;66590;50.734;4.246;2023-07-28T03:34:32;17.80;99.90
53410;DHT22;66590;50.734;4.246;2023-07-28T03:36:59;17.80;99.90
53410;DHT22;66590;50.734;4.246;2023-07-28T03:39:26;17.90;99.90
53410;DHT22;66590;50.734;4.246;2023-07-28T03:41:53;17.80;99.90
53410;DHT22;66590;50.734;4.246;2023-07-28T03:44:21;17.80;99.90
53410;DHT22;66590;50.734;4.246;2023-07-28T03:46:48;17.80;99.90
53410;DHT22;66590;50.734;4.246;2023-07-28T03:49:15;17.80;99.90
53410;DHT22;66590;50.734;4.246;2023-07-28T03:51:42;17.90;99.90
53410;DHT22;66590;50.734;4.246;2023-07-28T03:54:09;17.90;99.90
53410;DHT22;66590;50.734;4.246;2023-07-28T03:56:36;17.90;99.90
53410;DHT22;66590;50.734;4.246;2023-07-28T03:59:06;17.90;99.90
53410;DHT22;66590;50.734;4.246;2023-07-28T04:01:35;17.90;99.90
53410;DHT22;66590;50.734;4.246;2023-07-28T04:04:02;17.80;99.90
53410;DHT22;66590;50.734;4.246;2023-07-28T04:06:44;17.80;99.90
53410;DHT22;66590;50.734;4.246;2023-07-28T04:09:13;17.90;99.90
53410;DHT22;66590;50.734;4.246;2023-07-28T04:11:41;17.90;99.90
53410;DHT22;66590;50.734;4.246;2023-07-28T04:14:08;17.90;99.90
53410;DHT22;66590;50.734;4.246;2023-07-28T04:16:36;17.90;99.90
53410;DHT22;66590;50.734;4.246;2023-07-28T04:19:04;18.00;99.90
53410;DHT22;66590;50.734;4.246;2023-07-28T04:21:31;18.00;99.90
53410;DHT22;66590;50.734;4.246;2023-07-28T04:23:58;18.00;99.90
53410;DHT22;66590;50.734;4.246;2023-07-28T04:26:25;17.90;99.90
53410;DHT22;66590;50.734;4.246;2023-07-28T04:28:52;18.00;99.90
53410;DHT22;66590;50.734;4.246;2023-07-28T04:31:20;17.90;99.90
53410;DHT22;66590;50.734;4.246;2023-07-28T04:33:48;18.00;99.90
53410;DHT22;66590;50.734;4.246;2023-07-28T04:36:15;17.90;99.90
53410;DHT22;66590;50.734;4.246;2023-07-28T04:38:42;17.90;99.90
53410;DHT22;66590;50.734;4.246;2023-07-28T04:41:09;17.90;99.90
53410;DHT22;66590;50.734;4.246;2023-07-28T04:43:36;17.90;99.90
53410;DHT22;66590;50.734;4.246;2023-07-28T04:46:03;18.00;99.90
53410;DHT22;66590;50.734;4.246;2023-07-28T04:48:30;18.00;99.90
53410;DHT22;66590;50.734;4.246;2023-07-28T04:50:58;18.00;99.90
53410;DHT22;66590;50.734;4.246;2023-07-28T04:53:25;18.00;99.90
53410;DHT22;66590;50.734;4.246;2023-07-28T04:55:52;17.90;99.90
53410;DHT22;66590;50.734;4.246;2023-07-28T04:58:19;18.00;99.90
53410;DHT22;66590;50.734;4.246;2023-07-28T05:00:47;17.90;99.90
53410;DHT22;66590;50.734;4.246;2023-07-28T05:03:14;17.90;99.90
53410;DHT22;66590;50.734;4.246;2023-07-28T05:05:43;17.90;99.90
53410;DHT22;66590;50.734;4.246;2023-07-28T05:08:11;18.00;99.90
53410;DHT22;66590;50.734;4.246;2023-07-28T05:10:40;18.00;99.90
53410;DHT22;66590;50.734;4.246;2023-07-28T05:13:10;18.00;99.90
53410;DHT22;66590;50.734;4.246;2023-07-28T05:15:37;18.00;99.90
53410;DHT22;66590;50.734;4.246;2023-07-28T05:18:04;18.10;99.90
53410;DHT22;66590;50.734;4.246;2023-07-28T05:20:31;18.10;99.90
53410;DHT22;66590;50.734;4.246;2023-07-28T05:22:58;18.20;99.90
53410;DHT22;66590;50.734;4.246;2023-07-28T05:25:26;18.20;99.90
53410;DHT22;66590;50.734;4.246;2023-07-28T05:27:53;18.20;99.90
53410;DHT22;66590;50.734;4.246;2023-07-28T05:30:20;18.30;99.90
53410;DHT22;66590;50.734;4.246;2023-07-28T05:32:54;18.30;99.90
53410;DHT22;66590;50.734;4.246;2023-07-28T05:35:21;18.20;99.90
53410;DHT22;66590;50.734;4.246;2023-07-28T05:37:48;18.20;99.90
53410;DHT22;66590;50.734;4.246;2023-07-28T05:40:15;18.20;99.90
53410;DHT22;66590;50.734;4.246;2023-07-28T05:42:43;18.30;99.90
53410;DHT22;66590;50.734;4.246;2023-07-28T05:45:11;18.20;99.90
53410;DHT22;66590;50.734;4.246;2023-07-28T05:47:38;18.30;99.90
53410;DHT22;66590;50.734;4.246;2023-07-28T05:50:06;18.30;99.90
53410;DHT22;66590;50.734;4.246;2023-07-28T05:52:33;18.40;99.90
53410;DHT22;66590;50.734;4.246;2023-07-28T05:55:00;18.30;99.90
53410;DHT22;66590;50.734;4.246;2023-07-28T05:57:27;18.20;99.90
53410;DHT22;66590;50.734;4.246;2023-07-28T05:59:56;18.20;99.90
53410;DHT22;66590;50.734;4.246;2023-07-28T06:02:23;18.30;99.90
53410;DHT22;66590;50.734;4.246;2023-07-28T06:04:50;18.40;99.90
53410;DHT22;66590;50.734;4.246;2023-07-28T06:07:17;18.50;99.90
53410;DHT22;66590;50.734;4.246;2023-07-28T06:09:44;18.50;99.90
53410;DHT22;66590;50.734;4.246;2023-07-28T06:12:11;18.50;99.90
53410;DHT22;66590;50.734;4.246;2023-07-28T06:14:38;18.60;99.90
53410;DHT22;66590;50.734;4.246;2023-07-28T06:17:07;18.70;99.90
53410;DHT22;66590;50.734;4.246;2023-07-28T06:19:34;18.70;99.90
53410;DHT22;66590;50.734;4.246;2023-07-28T06:22:01;18.90;99.90
53410;DHT22;66590;50.734;4.246;2023-07-28T06:24:28;18.90;99.90
53410;DHT22;66590;50.734;4.246;2023-07-28T06:26:55;18.90;99.90
53410;DHT22;66590;50.734;4.246;2023-07-28T06:29:22;18.70;99.90
53410;DHT22;66590;50.734;4.246;2023-07-28T06:31:49;18.80;99.90
53410;DHT22;66590;50.734;4.246;2023-07-28T06:34:17;18.90;99.90
53410;DHT22;66590;50.734;4.246;2023-07-28T06:36:47;19.00;99.90
53410;DHT22;66590;50.734;4.246;2023-07-28T06:39:14;19.00;99.90
53410;DHT22;66590;50.734;4.246;2023-07-28T06:41:41;19.00;99.90
53410;DHT22;66590;50.734;4.246;2023-07-28T06:44:08;19.10;99.90
53410;DHT22;66590;50.734;4.246;2023-07-28T06:46:35;19.10;99.90
53410;DHT22;66590;50.734;4.246;2023-07-28T06:49:03;19.00;99.90
53410;DHT22;66590;50.734;4.246;2023-07-28T06:51:31;19.10;99.90
53410;DHT22;66590;50.734;4.246;2023-07-28T06:54:00;19.20;99.90
53410;DHT22;66590;50.734;4.246;2023-07-28T06:56:27;19.20;99.90
53410;DHT22;66590;50.734;4.246;2023-07-28T06:58:54;19.20;99.90
53410;DHT22;66590;50.734;4.246;2023-07-28T07:01:39;19.20;99.90
53410;DHT22;66590;50.734;4.246;2023-07-28T07:04:06;19.30;99.90
53410;DHT22;66590;50.734;4.246;2023-07-28T07:06:35;19.40;99.90
53410;DHT22;66590;50.734;4.246;2023-07-28T07:09:02;19.40;99.90
53410;DHT22;66590;50.734;4.246;2023-07-28T07:11:29;19.40;99.90
53410;DHT22;66590;50.734;4.246;2023-07-28T07:13:56;19.50;99.90
53410;DHT22;66590;50.734;4.246;2023-07-28T07:16:23;19.40;99.90
53410;DHT22;66590;50.734;4.246;2023-07-28T07:18:51;19.40;99.90
53410;DHT22;66590;50.734;4.246;2023-07-28T07:21:18;19.20;99.90
53410;DHT22;66590;50.734;4.246;2023-07-28T07:23:46;19.30;99.90
53410;DHT22;66590;50.734;4.246;2023-07-28T07:26:13;19.30;99.90
53410;DHT22;66590;50.734;4.246;2023-07-28T07:28:40;19.40;99.90
53410;DHT22;66590;50.734;4.246;2023-07-28T07:31:12;19.70;99.90
53410;DHT22;66590;50.734;4.246;2023-07-28T07:33:39;19.50;99.90
53410;DHT22;66590;50.734;4.246;2023-07-28T07:36:11;19.40;99.90
53410;DHT22;66590;50.734;4.246;2023-07-28T07:38:39;19.40;99.90
53410;DHT22;66590;50.734;4.246;2023-07-28T07:41:07;19.40;99.90
53410;DHT22;66590;50.734;4.246;2023-07-28T07:43:35;19.30;99.90
53410;DHT22;66590;50.734;4.246;2023-07-28T07:46:02;19.10;99.90
53410;DHT22;66590;50.734;4.246;2023-07-28T07:48:30;19.20;99.90
53410;DHT22;66590;50.734;4.246;2023-07-28T07:50:57;19.20;99.90
53410;DHT22;66590;50.734;4.246;2023-07-28T07:53:24;19.20;99.90
53410;DHT22;66590;50.734;4.246;2023-07-28T07:55:51;19.20;99.90
53410;DHT22;66590;50.734;4.246;2023-07-28T07:58:20;19.30;99.90
53410;DHT22;66590;50.734;4.246;2023-07-28T08:00:47;19.40;99.90
53410;DHT22;66590;50.734;4.246;2023-07-28T08:03:14;19.70;99.90
53410;DHT22;66590;50.734;4.246;2023-07-28T08:05:41;19.80;99.90
53410;DHT22;66590;50.734;4.246;2023-07-28T08:08:08;19.90;99.90
53410;DHT22;66590;50.734;4.246;2023-07-28T08:10:35;19.80;99.90
53410;DHT22;66590;50.734;4.246;2023-07-28T08:13:02;19.60;99.90
53410;DHT22;66590;50.734;4.246;2023-07-28T08:15:30;19.50;99.90
53410;DHT22;66590;50.734;4.246;2023-07-28T08:17:58;19.40;99.90
53410;DHT22;66590;50.734;4.246;2023-07-28T08:20:25;19.40;99.90
53410;DHT22;66590;50.734;4.246;2023-07-28T08:22:52;19.30;99.90
53410;DHT22;66590;50.734;4.246;2023-07-28T08:25:19;19.30;99.90
53410;DHT22;66590;50.734;4.246;2023-07-28T08:27:46;19.30;99.90
53410;DHT22;66590;50.734;4.246;2023-07-28T08:30:13;19.40;99.90
53410;DHT22;66590;50.734;4.246;2023-07-28T08:32:41;19.50;99.90
53410;DHT22;66590;50.734;4.246;2023-07-28T08:35:10;19.50;99.90
53410;DHT22;66590;50.734;4.246;2023-07-28T08:37:37;19.50;99.90
53410;DHT22;66590;50.734;4.246;2023-07-28T08:40:05;19.50;99.90
53410;DHT22;66590;50.734;4.246;2023-07-28T08:42:37;19.60;99.90
53410;DHT22;66590;50.734;4.246;2023-07-28T08:45:05;19.70;99.90
53410;DHT22;66590;50.734;4.246;2023-07-28T08:47:33;19.60;99.90
53410;DHT22;66590;50.734;4.246;2023-07-28T08:50:01;19.70;99.90
53410;DHT22;66590;50.734;4.246;2023-07-28T08:52:29;19.50;99.90
53410;DHT22;66590;50.734;4.246;2023-07-28T08:54:56;19.70;99.90
53410;DHT22;66590;50.734;4.246;2023-07-28T08:57:31;19.90;99.90
53410;DHT22;66590;50.734;4.246;2023-07-28T09:00:06;19.90;99.90
53410;DHT22;66590;50.734;4.246;2023-07-28T09:02:40;19.80;99.90
53410;DHT22;66590;50.734;4.246;2023-07-28T09:05:17;19.90;99.90
53410;DHT22;66590;50.734;4.246;2023-07-28T09:07:51;19.90;99.90
53410;DHT22;66590;50.734;4.246;2023-07-28T09:10:19;19.70;99.90
53410;DHT22;66590;50.734;4.246;2023-07-28T09:12:52;19.60;99.90
53410;DHT22;66590;50.734;4.246;2023-07-28T09:15:19;19.40;99.90
53410;DHT22;66590;50.734;4.246;2023-07-28T09:17:52;19.50;99.90
53410;DHT22;66590;50.734;4.246;2023-07-28T09:20:34;19.50;99.90
53410;DHT22;66590;50.734;4.246;2023-07-28T09:23:10;19.60;99.90
53410;DHT22;66590;50.734;4.246;2023-07-28T09:25:43;19.60;99.90
53410;DHT22;66590;50.734;4.246;2023-07-28T09:28:17;19.80;99.90
53410;DHT22;66590;50.734;4.246;2023-07-28T09:30:52;19.90;99.90
53410;DHT22;66590;50.734;4.246;2023-07-28T09:33:33;20.10;99.90
53410;DHT22;66590;50.734;4.246;2023-07-28T09:36:10;20.10;99.90
53410;DHT22;66590;50.734;4.246;2023-07-28T09:38:45;20.10;99.90
53410;DHT22;66590;50.734;4.246;2023-07-28T09:41:20;20.30;99.90
53410;DHT22;66590;50.734;4.246;2023-07-28T09:43:55;20.30;99.90
53410;DHT22;66590;50.734;4.246;2023-07-28T09:46:23;20.50;99.90
53410;DHT22;66590;50.734;4.246;2023-07-28T09:48:59;20.60;99.90
53410;DHT22;66590;50.734;4.246;2023-07-28T09:51:38;20.50;99.90
53410;DHT22;66590;50.734;4.246;2023-07-28T09:54:20;20.50;99.90
53410;DHT22;66590;50.734;4.246;2023-07-28T09:56:49;20.30;99.90
53410;DHT22;66590;50.734;4.246;2023-07-28T09:59:28;20.20;99.90
53410;DHT22;66590;50.734;4.246;2023-07-28T10:01:56;20.20;99.90
53410;DHT22;66590;50.734;4.246;2023-07-28T10:04:31;20.10;99.90
53410;DHT22;66590;50.734;4.246;2023-07-28T10:07:00;20.10;99.90
53410;DHT22;66590;50.734;4.246;2023-07-28T10:09:36;20.00;99.90
53410;DHT22;66590;50.734;4.246;2023-07-28T10:12:04;20.00;99.90
53410;DHT22;66590;50.734;4.246;2023-07-28T10:14:34;20.00;99.90
53410;DHT22;66590;50.734;4.246;2023-07-28T10:17:15;20.20;99.90
53410;DHT22;66590;50.734;4.246;2023-07-28T10:19:48;20.20;99.90
53410;DHT22;66590;50.734;4.246;2023-07-28T10:22:26;20.50;99.90
53410;DHT22;66590;50.734;4.246;2023-07-28T10:24:54;20.90;99.90
53410;DHT22;66590;50.734;4.246;2023-07-28T10:27:32;20.90;99.90
53410;DHT22;66590;50.734;4.246;2023-07-28T10:30:04;21.00;99.90
53410;DHT22;66590;50.734;4.246;2023-07-28T10:32:40;20.80;99.90
53410;DHT22;66590;50.734;4.246;2023-07-28T10:35:08;20.70;99.90
53410;DHT22;66590;50.734;4.246;2023-07-28T10:37:45;20.50;99.90
53410;DHT22;66590;50.734;4.246;2023-07-28T10:40:28;20.50;99.90
53410;DHT22;66590;50.734;4.246;2023-07-28T10:43:02;20.30;99.90
53410;DHT22;66590;50.734;4.246;2023-07-28T10:45:32;20.30;99.90
53410;DHT22;66590;50.734;4.246;2023-07-28T10:48:07;20.50;99.90
53410;DHT22;66590;50.734;4.246;2023-07-28T10:50:35;20.70;99.90
53410;DHT22;66590;50.734;4.246;2023-07-28T10:53:10;20.80;99.90
53410;DHT22;66590;50.734;4.246;2023-07-28T10:55:37;21.00;99.90
53410;DHT22;66590;50.734;4.246;2023-07-28T10:58:13;21.80;99.90
53410;DHT22;66590;50.734;4.246;2023-07-28T11:00:40;21.90;99.90
53410;DHT22;66590;50.734;4.246;2023-07-28T11:03:13;22.40;99.90
53410;DHT22;66590;50.734;4.246;2023-07-28T11:05:41;22.50;99.90
53410;DHT22;66590;50.734;4.246;2023-07-28T11:08:10;22.50;99.90
53410;DHT22;66590;50.734;4.246;2023-07-28T11:10:44;22.70;99.90
53410;DHT22;66590;50.734;4.246;2023-07-28T11:13:12;22.70;99.90
53410;DHT22;66590;50.734;4.246;2023-07-28T11:15:52;22.50;99.90
53410;DHT22;66590;50.734;4.246;2023-07-28T11:18:19;22.00;99.90
53410;DHT22;66590;50.734;4.246;2023-07-28T11:20:53;21.80;99.90
53410;DHT22;66590;50.734;4.246;2023-07-28T11:23:21;21.60;99.90
53410;DHT22;66590;50.734;4.246;2023-07-28T11:25:54;21.60;99.90
53410;DHT22;66590;50.734;4.246;2023-07-28T11:28:21;21.70;99.90
53410;DHT22;66590;50.734;4.246;2023-07-28T11:30:49;22.00;99.90
53410;DHT22;66590;50.734;4.246;2023-07-28T11:33:22;22.10;99.90
53410;DHT22;66590;50.734;4.246;2023-07-28T11:35:49;21.90;99.90
53410;DHT22;66590;50.734;4.246;2023-07-28T11:38:26;22.10;99.90
53410;DHT22;66590;50.734;4.246;2023-07-28T11:40:53;22.30;99.90
53410;DHT22;66590;50.734;4.246;2023-07-28T11:43:27;22.40;99.90
53410;DHT22;66590;50.734;4.246;2023-07-28T11:45:55;22.40;99.90
53410;DHT22;66590;50.734;4.246;2023-07-28T11:48:22;22.40;99.90
53410;DHT22;66590;50.734;4.246;2023-07-28T11:50:49;22.20;99.90
53410;DHT22;66590;50.734;4.246;2023-07-28T11:53:16;22.20;99.90
53410;DHT22;66590;50.734;4.246;2023-07-28T11:55:44;22.70;99.90
53410;DHT22;66590;50.734;4.246;2023-07-28T11:58:12;23.10;99.90
53410;DHT22;66590;50.734;4.246;2023-07-28T12:00:40;22.70;99.90
53410;DHT22;66590;50.734;4.246;2023-07-28T12:03:08;22.40;99.90
53410;DHT22;66590;50.734;4.246;2023-07-28T12:05:37;22.20;99.90
53410;DHT22;66590;50.734;4.246;2023-07-28T12:08:34;22.60;99.90
53410;DHT22;66590;50.734;4.246;2023-07-28T12:11:03;22.70;99.90
53410;DHT22;66590;50.734;4.246;2023-07-28T12:13:33;22.80;99.90
53410;DHT22;66590;50.734;4.246;2023-07-28T12:16:39;23.00;99.90
53410;DHT22;66590;50.734;4.246;2023-07-28T12:19:09;23.40;99.90
53410;DHT22;66590;50.734;4.246;2023-07-28T12:21:36;23.50;99.90
53410;DHT22;66590;50.734;4.246;2023-07-28T12:24:03;24.00;99.90
53410;DHT22;66590;50.734;4.246;2023-07-28T12:26:35;24.30;99.90
53410;DHT22;66590;50.734;4.246;2023-07-28T12:29:06;24.50;99.90
53410;DHT22;66590;50.734;4.246;2023-07-28T12:31:38;24.40;99.90
53410;DHT22;66590;50.734;4.246;2023-07-28T12:34:07;24.30;99.90
53410;DHT22;66590;50.734;4.246;2023-07-28T12:36:34;24.50;99.90
53410;DHT22;66590;50.734;4.246;2023-07-28T12:39:05;24.80;99.90
53410;DHT22;66590;50.734;4.246;2023-07-28T12:41:36;24.60;99.90
53410;DHT22;66590;50.734;4.246;2023-07-28T12:44:06;24.70;99.90
53410;DHT22;66590;50.734;4.246;2023-07-28T12:46:34;24.60;99.90
53410;DHT22;66590;50.734;4.246;2023-07-28T12:49:01;24.00;99.90
53410;DHT22;66590;50.734;4.246;2023-07-28T12:51:28;23.80;99.90
53410;DHT22;66590;50.734;4.246;2023-07-28T12:53:57;23.80;99.90
53410;DHT22;66590;50.734;4.246;2023-07-28T12:56:24;23.90;99.90
53410;DHT22;66590;50.734;4.246;2023-07-28T12:58:56;23.90;99.90
53410;DHT22;66590;50.734;4.246;2023-07-28T13:01:26;23.60;99.90
53410;DHT22;66590;50.734;4.246;2023-07-28T13:03:53;23.30;99.90
53410;DHT22;66590;50.734;4.246;2023-07-28T13:06:20;23.20;99.90
53410;DHT22;66590;50.734;4.246;2023-07-28T13:08:47;23.00;99.90
53410;DHT22;66590;50.734;4.246;2023-07-28T13:11:17;22.70;99.90
53410;DHT22;66590;50.734;4.246;2023-07-28T13:13:45;22.60;99.90
53410;DHT22;66590;50.734;4.246;2023-07-28T13:16:14;22.60;99.90
53410;DHT22;66590;50.734;4.246;2023-07-28T13:18:42;22.60;99.90
53410;DHT22;66590;50.734;4.246;2023-07-28T13:21:10;22.80;99.90
53410;DHT22;66590;50.734;4.246;2023-07-28T13:23:37;23.20;99.90
53410;DHT22;66590;50.734;4.246;2023-07-28T13:26:04;23.50;99.90
53410;DHT22;66590;50.734;4.246;2023-07-28T13:28:31;23.80;99.90
53410;DHT22;66590;50.734;4.246;2023-07-28T13:30:58;23.80;99.90
53410;DHT22;66590;50.734;4.246;2023-07-28T13:33:27;23.70;99.90
53410;DHT22;66590;50.734;4.246;2023-07-28T13:35:55;24.10;99.90
53410;DHT22;66590;50.734;4.246;2023-07-28T13:38:22;24.30;99.90
53410;DHT22;66590;50.734;4.246;2023-07-28T13:40:49;24.80;99.90
53410;DHT22;66590;50.734;4.246;2023-07-28T13:43:16;24.50;99.90
53410;DHT22;66590;50.734;4.246;2023-07-28T13:45:43;24.70;99.90
53410;DHT22;66590;50.734;4.246;2023-07-28T13:48:10;24.60;99.90
53410;DHT22;66590;50.734;4.246;2023-07-28T13:50:53;24.50;99.90
53410;DHT22;66590;50.734;4.246;2023-07-28T13:53:22;24.50;99.90
53410;DHT22;66590;50.734;4.246;2023-07-28T13:55:52;24.20;99.90
53410;DHT22;66590;50.734;4.246;2023-07-28T13:58:22;24.10;99.90
53410;DHT22;66590;50.734;4.246;2023-07-28T14:00:49;24.00;99.90
53410;DHT22;66590;50.734;4.246;2023-07-28T14:03:17;23.80;99.90
53410;DHT22;66590;50.734;4.246;2023-07-28T14:05:44;23.80;99.90
53410;DHT22;66590;50.734;4.246;2023-07-28T14:08:12;23.90;99.90
53410;DHT22;66590;50.734;4.246;2023-07-28T14:10:43;24.20;99.90
53410;DHT22;66590;50.734;4.246;2023-07-28T14:13:10;24.60;99.90
53410;DHT22;66590;50.734;4.246;2023-07-28T14:15:37;25.10;99.90
53410;DHT22;66590;50.734;4.246;2023-07-28T14:18:07;24.90;99.90
53410;DHT22;66590;50.734;4.246;2023-07-28T14:20:34;24.80;99.90
53410;DHT22;66590;50.734;4.246;2023-07-28T14:23:01;25.10;99.90
53410;DHT22;66590;50.734;4.246;2023-07-28T14:25:29;25.50;99.90
53410;DHT22;66590;50.734;4.246;2023-07-28T14:27:56;25.60;99.90
53410;DHT22;66590;50.734;4.246;2023-07-28T14:30:23;25.40;99.90
53410;DHT22;66590;50.734;4.246;2023-07-28T14:32:50;25.30;99.90
53410;DHT22;66590;50.734;4.246;2023-07-28T14:35:17;25.40;99.90
53410;DHT22;66590;50.734;4.246;2023-07-28T14:37:44;25.40;99.90
53410;DHT22;66590;50.734;4.246;2023-07-28T14:40:12;25.60;99.90
53410;DHT22;66590;50.734;4.246;2023-07-28T14:42:40;25.40;99.90
53410;DHT22;66590;50.734;4.246;2023-07-28T14:45:07;25.50;99.90
53410;DHT22;66590;50.734;4.246;2023-07-28T14:47:34;25.40;99.90
53410;DHT22;66590;50.734;4.246;2023-07-28T14:50:01;25.60;99.90
53410;DHT22;66590;50.734;4.246;2023-07-28T14:52:28;25.60;99.90
53410;DHT22;66590;50.734;4.246;2023-07-28T14:54:55;25.40;99.90
53410;DHT22;66590;50.734;4.246;2023-07-28T14:57:22;25.10;99.90
53410;DHT22;66590;50.734;4.246;2023-07-28T15:00:01;24.80;99.90
53410;DHT22;66590;50.734;4.246;2023-07-28T15:02:28;24.50;99.90
53410;DHT22;66590;50.734;4.246;2023-07-28T15:04:55;24.30;99.90
53410;DHT22;66590;50.734;4.246;2023-07-28T15:07:22;24.40;99.90
53410;DHT22;66590;50.734;4.246;2023-07-28T15:09:49;24.60;99.90
53410;DHT22;66590;50.734;4.246;2023-07-28T15:12:16;24.80;99.90
53410;DHT22;66590;50.734;4.246;2023-07-28T15:14:43;25.40;99.90
53410;DHT22;66590;50.734;4.246;2023-07-28T15:17:12;25.70;99.90
53410;DHT22;66590;50.734;4.246;2023-07-28T15:19:39;25.90;99.90
53410;DHT22;66590;50.734;4.246;2023-07-28T15:22:06;26.00;99.90
53410;DHT22;66590;50.734;4.246;2023-07-28T15:24:33;25.80;99.90
53410;DHT22;66590;50.734;4.246;2023-07-28T15:27:00;25.50;99.90
53410;DHT22;66590;50.734;4.246;2023-07-28T15:29:27;25.80;99.90
53410;DHT22;66590;50.734;4.246;2023-07-28T15:31:53;25.70;99.90
53410;DHT22;66590;50.734;4.246;2023-07-28T15:34:22;25.80;99.90
53410;DHT22;66590;50.734;4.246;2023-07-28T15:36:49;25.80;99.90
53410;DHT22;66590;50.734;4.246;2023-07-28T15:39:16;25.70;99.90